sensor_id;sensor_type;location;lat;lon;timestamp;pressure;altitude;pressure_sealevel;temperature;humidity
10008;BME280;5043;41.766;26.204;2024-03-23T00:53:41;101237.00;;;5.13;92.48
10008;BME280;5043;41.766;26.204;2024-03-23T00:56:07;101244.97;;;5.10;92.16
10008;BME280;5043;41.766;26.204;2024-03-23T00:58:32;101225.13;;;5.05;92.28
10008;BME280;5043;41.766;26.204;2024-03-23T01:00:58;101212.91;;;4.85;91.92
10008;BME280;5043;41.766;26.204;2024-03-23T01:03:23;101214.94;;;4.99;91.79
10008;BME280;5043;41.766;26.204;2024-03-23T01:05:49;101242.25;;;5.13;91.86
10008;BME280;5043;41.766;26.204;2024-03-23T01:08:14;101233.66;;;5.10;91.51
10008;BME280;5043;41.766;26.204;2024-03-23T01:10:40;101228.91;;;4.98;91.87
10008;BME280;5043;41.766;26.204;2024-03-23T01:13:05;101240.03;;;5.03;91.72
10008;BME280;5043;41.766;26.204;2024-03-23T01:15:31;101223.94;;;4.92;92.15
10008;BME280;5043;41.766;26.204;2024-03-23T01:17:57;101229.19;;;4.92;91.86
10008;BME280;5043;41.766;26.204;2024-03-23T01:20:22;101220.91;;;4.80;91.94
10008;BME280;5043;41.766;26.204;2024-03-23T01:22:48;101232.94;;;4.84;92.08
10008;BME280;5043;41.766;26.204;2024-03-23T01:25:13;101229.38;;;4.87;92.03
10008;BME280;5043;41.766;26.204;2024-03-23T01:27:38;101215.06;;;4.74;91.35
10008;BME280;5043;41.766;26.204;2024-03-23T01:30:04;101235.16;;;4.73;92.19
10008;BME280;5043;41.766;26.204;2024-03-23T01:32:30;101249.00;;;4.75;91.93
10008;BME280;5043;41.766;26.204;2024-03-23T01:34:55;101237.59;;;4.76;91.90
10008;BME280;5043;41.766;26.204;2024-03-23T01:37:21;101234.41;;;4.70;91.94
10008;BME280;5043;41.766;26.204;2024-03-23T01:39:46;101224.31;;;4.61;91.53
10008;BME280;5043;41.766;26.204;2024-03-23T01:42:12;101228.50;;;4.65;91.26
10008;BME280;5043;41.766;26.204;2024-03-23T01:44:37;101226.06;;;4.60;91.46
10008;BME280;5043;41.766;26.204;2024-03-23T01:47:03;101200.47;;;4.47;91.22
10008;BME280;5043;41.766;26.204;2024-03-23T01:49:28;101219.31;;;4.55;91.45
10008;BME280;5043;41.766;26.204;2024-03-23T01:51:54;101224.50;;;4.56;91.50
10008;BME280;5043;41.766;26.204;2024-03-23T01:54:20;101219.31;;;4.55;91.81
10008;BME280;5043;41.766;26.204;2024-03-23T01:56:46;101218.00;;;4.43;91.61
10008;BME280;5043;41.766;26.204;2024-03-23T01:59:12;101192.31;;;4.33;91.55
10008;BME280;5043;41.766;26.204;2024-03-23T02:01:38;101221.38;;;4.47;91.97
10008;BME280;5043;41.766;26.204;2024-03-23T02:04:04;101201.81;;;4.35;91.59
10008;BME280;5043;41.766;26.204;2024-03-23T02:06:29;101208.72;;;4.36;91.47
10008;BME280;5043;41.766;26.204;2024-03-23T02:08:55;101219.72;;;4.44;91.33
10008;BME280;5043;41.766;26.204;2024-03-23T02:11:21;101213.81;;;4.39;92.02
10008;BME280;5043;41.766;26.204;2024-03-23T02:13:47;101197.03;;;4.23;91.79
10008;BME280;5043;41.766;26.204;2024-03-23T02:16:12;101197.41;;;4.14;91.95
10008;BME280;5043;41.766;26.204;2024-03-23T02:18:38;101220.38;;;4.28;91.84
10008;BME280;5043;41.766;26.204;2024-03-23T02:21:04;101196.66;;;4.10;91.95
10008;BME280;5043;41.766;26.204;2024-03-23T02:23:29;101223.22;;;4.22;91.75
10008;BME280;5043;41.766;26.204;2024-03-23T02:25:55;101222.53;;;4.16;91.70
10008;BME280;5043;41.766;26.204;2024-03-23T02:28:21;101227.00;;;4.13;91.85
10008;BME280;5043;41.766;26.204;2024-03-23T02:30:48;101224.34;;;4.14;91.85
10008;BME280;5043;41.766;26.204;2024-03-23T02:33:14;101212.66;;;4.01;92.43
10008;BME280;5043;41.766;26.204;2024-03-23T02:35:39;101210.22;;;3.97;92.47
10008;BME280;5043;41.766;26.204;2024-03-23T02:38:05;101224.47;;;4.11;92.56
10008;BME280;5043;41.766;26.204;2024-03-23T02:40:30;101228.13;;;4.06;92.44
10008;BME280;5043;41.766;26.204;2024-03-23T02:42:55;101230.91;;;4.01;91.82
10008;BME280;5043;41.766;26.204;2024-03-23T02:45:21;101224.34;;;3.91;92.09
10008;BME280;5043;41.766;26.204;2024-03-23T02:47:46;101238.97;;;3.95;92.16
10008;BME280;5043;41.766;26.204;2024-03-23T02:50:12;101199.75;;;3.74;92.31
10008;BME280;5043;41.766;26.204;2024-03-23T02:52:37;101243.59;;;3.89;91.89
10008;BME280;5043;41.766;26.204;2024-03-23T02:55:03;101231.44;;;3.88;92.27
10008;BME280;5043;41.766;26.204;2024-03-23T02:57:29;101232.22;;;3.90;92.25
10008;BME280;5043;41.766;26.204;2024-03-23T02:59:55;101225.25;;;3.90;92.02
10008;BME280;5043;41.766;26.204;2024-03-23T03:02:20;101241.88;;;3.88;91.86
10008;BME280;5043;41.766;26.204;2024-03-23T03:04:46;101219.75;;;3.75;91.71
10008;BME280;5043;41.766;26.204;2024-03-23T03:07:12;101241.41;;;3.77;91.90
10008;BME280;5043;41.766;26.204;2024-03-23T03:09:39;101239.13;;;3.68;91.99
10008;BME280;5043;41.766;26.204;2024-03-23T03:12:07;101204.41;;;3.66;91.95
10008;BME280;5043;41.766;26.204;2024-03-23T03:14:34;101200.16;;;3.63;92.25
10008;BME280;5043;41.766;26.204;2024-03-23T03:16:59;101233.91;;;3.68;92.54
10008;BME280;5043;41.766;26.204;2024-03-23T03:19:25;101223.41;;;3.69;92.05
10008;BME280;5043;41.766;26.204;2024-03-23T03:21:51;101239.13;;;3.68;92.31
10008;BME280;5043;41.766;26.204;2024-03-23T03:24:16;101246.94;;;3.68;92.55
10008;BME280;5043;41.766;26.204;2024-03-23T03:26:42;101160.50;;;3.29;92.56
10008;BME280;5043;41.766;26.204;2024-03-23T03:29:07;101193.25;;;3.37;92.25
10008;BME280;5043;41.766;26.204;2024-03-23T03:31:33;101222.72;;;3.64;92.86
10008;BME280;5043;41.766;26.204;2024-03-23T03:33:58;101237.47;;;3.65;92.20
10008;BME280;5043;41.766;26.204;2024-03-23T03:36:24;101228.88;;;3.62;92.13
10008;BME280;5043;41.766;26.204;2024-03-23T03:38:49;101218.03;;;3.49;92.24
10008;BME280;5043;41.766;26.204;2024-03-23T03:41:15;101228.03;;;3.61;92.15
10008;BME280;5043;41.766;26.204;2024-03-23T03:43:41;101223.13;;;3.52;92.04
10008;BME280;5043;41.766;26.204;2024-03-23T03:46:06;101233.38;;;3.58;92.02
10008;BME280;5043;41.766;26.204;2024-03-23T03:48:33;101223.25;;;3.49;92.13
10008;BME280;5043;41.766;26.204;2024-03-23T03:50:59;101247.28;;;3.59;91.54
10008;BME280;5043;41.766;26.204;2024-03-23T03:53:25;101237.94;;;3.52;91.50
10008;BME280;5043;41.766;26.204;2024-03-23T03:55:51;101233.72;;;3.47;91.43
10008;BME280;5043;41.766;26.204;2024-03-23T03:58:16;101232.84;;;3.47;91.63
10008;BME280;5043;41.766;26.204;2024-03-23T04:00:42;101233.78;;;3.46;91.78
10008;BME280;5043;41.766;26.204;2024-03-23T04:03:07;101237.41;;;3.42;92.05
10008;BME280;5043;41.766;26.204;2024-03-23T04:05:33;101216.91;;;3.31;91.75
10008;BME280;5043;41.766;26.204;2024-03-23T04:07:58;101236.72;;;3.37;92.21
10008;BME280;5043;41.766;26.204;2024-03-23T04:10:24;101233.47;;;3.30;91.77
10008;BME280;5043;41.766;26.204;2024-03-23T04:12:50;101241.22;;;3.32;92.39
10008;BME280;5043;41.766;26.204;2024-03-23T04:15:15;101227.47;;;3.27;92.70
10008;BME280;5043;41.766;26.204;2024-03-23T04:17:41;101256.72;;;3.36;92.48
10008;BME280;5043;41.766;26.204;2024-03-23T04:20:08;101231.75;;;3.29;92.24
10008;BME280;5043;41.766;26.204;2024-03-23T04:22:37;101255.84;;;3.36;92.45
10008;BME280;5043;41.766;26.204;2024-03-23T04:25:02;101255.81;;;3.37;92.43
10008;BME280;5043;41.766;26.204;2024-03-23T04:27:34;101219.75;;;3.24;92.51
10008;BME280;5043;41.766;26.204;2024-03-23T04:30:00;101252.38;;;3.35;92.18
10008;BME280;5043;41.766;26.204;2024-03-23T04:32:27;101192.09;;;2.94;92.68
10008;BME280;5043;41.766;26.204;2024-03-23T04:34:52;101276.94;;;3.28;92.80
10008;BME280;5043;41.766;26.204;2024-03-23T04:37:18;101208.66;;;2.93;92.88
10008;BME280;5043;41.766;26.204;2024-03-23T04:39:43;101251.19;;;3.19;93.38
10008;BME280;5043;41.766;26.204;2024-03-23T04:42:09;101229.13;;;3.05;93.36
10008;BME280;5043;41.766;26.204;2024-03-23T04:44:34;101286.16;;;3.12;93.44
10008;BME280;5043;41.766;26.204;2024-03-23T04:47:00;101220.06;;;2.89;93.96
10008;BME280;5043;41.766;26.204;2024-03-23T04:49:26;101242.03;;;3.08;94.73
10008;BME280;5043;41.766;26.204;2024-03-23T04:51:51;101248.09;;;3.08;95.85
10008;BME280;5043;41.766;26.204;2024-03-23T04:54:17;101260.78;;;3.19;96.60
10008;BME280;5043;41.766;26.204;2024-03-23T04:56:42;101287.81;;;3.16;98.16
10008;BME280;5043;41.766;26.204;2024-03-23T04:59:08;101246.50;;;3.04;99.59
10008;BME280;5043;41.766;26.204;2024-03-23T05:01:34;101259.94;;;3.18;100.00
10008;BME280;5043;41.766;26.204;2024-03-23T05:04:00;101216.47;;;2.93;100.00
10008;BME280;5043;41.766;26.204;2024-03-23T05:06:25;101266.00;;;3.19;100.00
10008;BME280;5043;41.766;26.204;2024-03-23T05:08:51;101244.47;;;3.12;100.00
10008;BME280;5043;41.766;26.204;2024-03-23T05:11:17;101261.53;;;3.22;100.00
10008;BME280;5043;41.766;26.204;2024-03-23T05:13:43;101265.88;;;3.22;100.00
10008;BME280;5043;41.766;26.204;2024-03-23T05:16:09;101249.53;;;3.17;100.00
10008;BME280;5043;41.766;26.204;2024-03-23T05:18:35;101242.56;;;3.17;100.00
10008;BME280;5043;41.766;26.204;2024-03-23T05:21:01;101274.97;;;3.36;99.51
10008;BME280;5043;41.766;26.204;2024-03-23T05:23:28;101278.13;;;3.46;99.45
10008;BME280;5043;41.766;26.204;2024-03-23T05:25:53;101279.69;;;3.52;98.66
10008;BME280;5043;41.766;26.204;2024-03-23T05:28:20;101275.81;;;3.63;98.14
10008;BME280;5043;41.766;26.204;2024-03-23T05:30:53;101245.28;;;3.65;97.87
10008;BME280;5043;41.766;26.204;2024-03-23T05:33:19;101273.78;;;3.96;97.53
10008;BME280;5043;41.766;26.204;2024-03-23T05:35:46;101247.50;;;4.00;97.15
10008;BME280;5043;41.766;26.204;2024-03-23T05:38:11;101273.34;;;4.31;96.80
10008;BME280;5043;41.766;26.204;2024-03-23T05:40:37;101195.81;;;4.10;96.25
10008;BME280;5043;41.766;26.204;2024-03-23T05:43:08;101282.22;;;4.72;95.57
10008;BME280;5043;41.766;26.204;2024-03-23T05:45:34;101256.94;;;4.72;95.70
10008;BME280;5043;41.766;26.204;2024-03-23T05:47:59;101277.69;;;4.99;95.24
10008;BME280;5043;41.766;26.204;2024-03-23T05:50:25;101275.31;;;5.14;94.68
10008;BME280;5043;41.766;26.204;2024-03-23T05:52:50;101284.97;;;5.34;94.16
10008;BME280;5043;41.766;26.204;2024-03-23T05:55:16;101274.22;;;5.40;92.93
10008;BME280;5043;41.766;26.204;2024-03-23T05:57:41;101279.75;;;5.54;91.95
10008;BME280;5043;41.766;26.204;2024-03-23T06:00:07;101287.16;;;5.65;92.07
10008;BME280;5043;41.766;26.204;2024-03-23T06:02:43;101276.34;;;5.72;91.99
10008;BME280;5043;41.766;26.204;2024-03-23T06:05:12;101269.72;;;5.85;92.49
10008;BME280;5043;41.766;26.204;2024-03-23T06:07:37;101257.41;;;5.87;92.70
10008;BME280;5043;41.766;26.204;2024-03-23T06:10:04;101278.91;;;6.14;92.94
10008;BME280;5043;41.766;26.204;2024-03-23T06:12:30;101282.59;;;6.29;92.51
10008;BME280;5043;41.766;26.204;2024-03-23T06:14:56;101281.63;;;6.31;91.61
10008;BME280;5043;41.766;26.204;2024-03-23T06:17:21;101257.81;;;6.36;91.51
10008;BME280;5043;41.766;26.204;2024-03-23T06:19:47;101276.97;;;6.38;90.96
10008;BME280;5043;41.766;26.204;2024-03-23T06:22:12;101281.78;;;6.65;90.63
10008;BME280;5043;41.766;26.204;2024-03-23T06:24:38;101268.13;;;6.77;90.54
10008;BME280;5043;41.766;26.204;2024-03-23T06:27:04;101286.38;;;6.98;89.17
10008;BME280;5043;41.766;26.204;2024-03-23T06:29:29;101236.84;;;6.91;88.37
10008;BME280;5043;41.766;26.204;2024-03-23T06:31:55;101276.16;;;7.27;87.53
10008;BME280;5043;41.766;26.204;2024-03-23T06:34:21;101273.94;;;7.37;87.27
10008;BME280;5043;41.766;26.204;2024-03-23T06:36:49;101273.81;;;7.57;86.83
10008;BME280;5043;41.766;26.204;2024-03-23T06:39:15;101269.63;;;7.70;86.43
10008;BME280;5043;41.766;26.204;2024-03-23T06:41:42;101257.72;;;7.80;86.33
10008;BME280;5043;41.766;26.204;2024-03-23T06:44:08;101272.91;;;8.08;85.76
10008;BME280;5043;41.766;26.204;2024-03-23T06:46:33;101281.38;;;8.30;84.74
10008;BME280;5043;41.766;26.204;2024-03-23T06:48:58;101261.97;;;8.32;84.08
10008;BME280;5043;41.766;26.204;2024-03-23T06:51:24;101279.50;;;8.65;82.68
10008;BME280;5043;41.766;26.204;2024-03-23T06:53:49;101261.75;;;8.68;82.46
10008;BME280;5043;41.766;26.204;2024-03-23T06:56:15;101260.63;;;8.72;82.43
10008;BME280;5043;41.766;26.204;2024-03-23T06:58:40;101290.09;;;8.94;82.15
10008;BME280;5043;41.766;26.204;2024-03-23T07:01:06;101263.94;;;9.07;81.46
10008;BME280;5043;41.766;26.204;2024-03-23T07:03:32;101286.84;;;9.21;80.86
10008;BME280;5043;41.766;26.204;2024-03-23T07:05:58;101279.88;;;9.20;81.19
10008;BME280;5043;41.766;26.204;2024-03-23T07:08:24;101254.50;;;9.19;80.29
10008;BME280;5043;41.766;26.204;2024-03-23T07:10:49;101252.22;;;9.13;79.94
10008;BME280;5043;41.766;26.204;2024-03-23T07:13:15;101262.53;;;9.31;80.04
10008;BME280;5043;41.766;26.204;2024-03-23T07:15:40;101271.16;;;9.49;79.37
10008;BME280;5043;41.766;26.204;2024-03-23T07:18:06;101269.53;;;9.76;79.22
10008;BME280;5043;41.766;26.204;2024-03-23T07:20:31;101258.66;;;9.82;77.07
10008;BME280;5043;41.766;26.204;2024-03-23T07:22:57;101265.34;;;10.02;75.93
10008;BME280;5043;41.766;26.204;2024-03-23T07:25:22;101276.66;;;10.18;74.88
10008;BME280;5043;41.766;26.204;2024-03-23T07:27:49;101262.66;;;10.31;73.39
10008;BME280;5043;41.766;26.204;2024-03-23T07:30:15;101230.06;;;10.32;72.43
10008;BME280;5043;41.766;26.204;2024-03-23T07:32:40;101266.75;;;10.78;71.61
10008;BME280;5043;41.766;26.204;2024-03-23T07:35:06;101248.50;;;11.01;69.19
10008;BME280;5043;41.766;26.204;2024-03-23T07:37:32;101259.75;;;11.30;67.03
10008;BME280;5043;41.766;26.204;2024-03-23T07:39:57;101251.69;;;11.46;65.79
10008;BME280;5043;41.766;26.204;2024-03-23T07:42:23;101251.94;;;11.55;64.40
10008;BME280;5043;41.766;26.204;2024-03-23T07:44:51;101245.31;;;11.75;64.06
10008;BME280;5043;41.766;26.204;2024-03-23T07:47:16;101240.34;;;11.83;62.57
10008;BME280;5043;41.766;26.204;2024-03-23T07:49:42;101251.03;;;11.94;61.14
10008;BME280;5043;41.766;26.204;2024-03-23T07:52:07;101219.41;;;11.80;60.76
10008;BME280;5043;41.766;26.204;2024-03-23T07:54:33;101248.06;;;12.11;60.43
10008;BME280;5043;41.766;26.204;2024-03-23T07:56:59;101245.41;;;12.24;60.24
10008;BME280;5043;41.766;26.204;2024-03-23T07:59:24;101244.53;;;12.36;60.06
10008;BME280;5043;41.766;26.204;2024-03-23T08:01:50;101240.63;;;12.54;58.57
10008;BME280;5043;41.766;26.204;2024-03-23T08:04:16;101232.75;;;12.65;56.80
10008;BME280;5043;41.766;26.204;2024-03-23T08:06:41;101240.47;;;12.92;54.40
10008;BME280;5043;41.766;26.204;2024-03-23T08:09:07;101234.53;;;13.01;54.45
10008;BME280;5043;41.766;26.204;2024-03-23T08:11:33;101225.69;;;12.89;53.48
10008;BME280;5043;41.766;26.204;2024-03-23T08:14:00;101248.25;;;13.19;52.47
10008;BME280;5043;41.766;26.204;2024-03-23T08:16:27;101233.41;;;13.16;51.14
10008;BME280;5043;41.766;26.204;2024-03-23T08:18:52;101226.56;;;13.25;51.26
10008;BME280;5043;41.766;26.204;2024-03-23T08:21:18;101232.44;;;13.41;51.94
10008;BME280;5043;41.766;26.204;2024-03-23T08:23:44;101208.59;;;13.41;51.03
10008;BME280;5043;41.766;26.204;2024-03-23T08:26:12;101228.78;;;13.65;50.27
10008;BME280;5043;41.766;26.204;2024-03-23T08:28:38;101204.53;;;13.59;49.53
10008;BME280;5043;41.766;26.204;2024-03-23T08:31:08;101226.75;;;13.80;50.60
10008;BME280;5043;41.766;26.204;2024-03-23T08:33:35;101227.72;;;13.79;50.87
10008;BME280;5043;41.766;26.204;2024-03-23T08:36:05;101210.75;;;14.04;50.00
10008;BME280;5043;41.766;26.204;2024-03-23T08:38:32;101210.63;;;14.05;49.78
10008;BME280;5043;41.766;26.204;2024-03-23T08:41:07;101208.59;;;14.20;49.36
10008;BME280;5043;41.766;26.204;2024-03-23T08:43:35;101202.69;;;14.27;48.75
10008;BME280;5043;41.766;26.204;2024-03-23T08:46:07;101197.00;;;13.99;49.68
10008;BME280;5043;41.766;26.204;2024-03-23T08:48:53;101208.06;;;13.82;50.61
10008;BME280;5043;41.766;26.204;2024-03-23T08:51:19;101215.06;;;13.94;49.84
10008;BME280;5043;41.766;26.204;2024-03-23T08:53:45;101203.16;;;13.99;48.66
10008;BME280;5043;41.766;26.204;2024-03-23T08:56:11;101180.97;;;14.11;49.05
10008;BME280;5043;41.766;26.204;2024-03-23T08:58:37;101191.22;;;14.38;49.02
10008;BME280;5043;41.766;26.204;2024-03-23T09:01:11;101198.56;;;14.57;47.58
10008;BME280;5043;41.766;26.204;2024-03-23T09:03:38;101164.97;;;14.67;45.95
10008;BME280;5043;41.766;26.204;2024-03-23T09:06:08;101161.81;;;14.73;45.56
10008;BME280;5043;41.766;26.204;2024-03-23T09:08:34;101169.69;;;14.74;45.40
10008;BME280;5043;41.766;26.204;2024-03-23T09:11:05;101154.84;;;14.72;44.64
10008;BME280;5043;41.766;26.204;2024-03-23T09:13:34;101112.88;;;14.55;45.20
10008;BME280;5043;41.766;26.204;2024-03-23T09:16:00;101158.31;;;15.04;44.65
10008;BME280;5043;41.766;26.204;2024-03-23T09:18:26;101144.59;;;15.20;44.59
10008;BME280;5043;41.766;26.204;2024-03-23T09:20:52;101149.97;;;15.29;43.97
10008;BME280;5043;41.766;26.204;2024-03-23T09:23:21;101142.91;;;15.39;43.80
10008;BME280;5043;41.766;26.204;2024-03-23T09:25:46;101136.41;;;15.73;43.36
10008;BME280;5043;41.766;26.204;2024-03-23T09:28:12;101134.88;;;16.11;42.68
10008;BME280;5043;41.766;26.204;2024-03-23T09:30:37;101120.69;;;16.40;41.36
10008;BME280;5043;41.766;26.204;2024-03-23T09:33:09;101112.19;;;16.56;41.96
10008;BME280;5043;41.766;26.204;2024-03-23T09:35:42;101111.88;;;16.49;41.62
10008;BME280;5043;41.766;26.204;2024-03-23T09:38:10;101100.28;;;16.60;42.58
10008;BME280;5043;41.766;26.204;2024-03-23T09:40:44;101099.72;;;16.66;42.49
10008;BME280;5043;41.766;26.204;2024-03-23T09:43:11;101096.06;;;16.86;42.01
10008;BME280;5043;41.766;26.204;2024-03-23T09:45:40;101101.56;;;16.94;41.24
10008;BME280;5043;41.766;26.204;2024-03-23T09:48:09;101036.16;;;16.42;41.16
10008;BME280;5043;41.766;26.204;2024-03-23T09:50:37;101091.47;;;16.69;41.53
10008;BME280;5043;41.766;26.204;2024-03-23T09:53:04;101079.13;;;16.87;40.54
10008;BME280;5043;41.766;26.204;2024-03-23T09:55:30;101046.28;;;16.87;40.01
10008;BME280;5043;41.766;26.204;2024-03-23T09:57:55;101074.81;;;17.33;39.26
10008;BME280;5043;41.766;26.204;2024-03-23T10:00:21;101071.56;;;17.58;38.33
10008;BME280;5043;41.766;26.204;2024-03-23T10:02:47;101071.69;;;17.47;37.22
10008;BME280;5043;41.766;26.204;2024-03-23T10:05:23;101066.03;;;17.69;37.61
10008;BME280;5043;41.766;26.204;2024-03-23T10:07:51;101050.81;;;17.79;37.34
10008;BME280;5043;41.766;26.204;2024-03-23T10:10:17;101068.38;;;17.81;36.67
10008;BME280;5043;41.766;26.204;2024-03-23T10:12:45;101058.22;;;17.85;36.36
10008;BME280;5043;41.766;26.204;2024-03-23T10:15:18;101036.97;;;17.93;36.33
10008;BME280;5043;41.766;26.204;2024-03-23T10:17:44;101042.03;;;17.86;35.40
10008;BME280;5043;41.766;26.204;2024-03-23T10:20:10;101036.97;;;17.93;35.87
10008;BME280;5043;41.766;26.204;2024-03-23T10:22:39;101038.59;;;18.04;34.99
10008;BME280;5043;41.766;26.204;2024-03-23T10:25:09;101034.41;;;18.36;34.53
10008;BME280;5043;41.766;26.204;2024-03-23T10:27:35;101022.28;;;18.42;34.15
10008;BME280;5043;41.766;26.204;2024-03-23T10:30:10;101018.81;;;18.59;34.15
10008;BME280;5043;41.766;26.204;2024-03-23T10:32:37;101004.75;;;18.57;34.83
10008;BME280;5043;41.766;26.204;2024-03-23T10:37:44;101001.09;;;19.27;32.89
10008;BME280;5043;41.766;26.204;2024-03-23T10:40:12;100997.03;;;19.49;32.33
10008;BME280;5043;41.766;26.204;2024-03-23T10:42:38;100987.78;;;19.77;30.83
10008;BME280;5043;41.766;26.204;2024-03-23T10:45:05;100983.38;;;20.18;30.32
10008;BME280;5043;41.766;26.204;2024-03-23T10:47:35;100980.22;;;20.54;29.66
10008;BME280;5043;41.766;26.204;2024-03-23T10:50:03;100981.72;;;20.89;27.59
10008;BME280;5043;41.766;26.204;2024-03-23T10:52:29;100977.00;;;21.15;26.43
10008;BME280;5043;41.766;26.204;2024-03-23T10:54:55;100963.38;;;21.25;26.60
10008;BME280;5043;41.766;26.204;2024-03-23T10:57:44;100961.22;;;21.29;23.95
10008;BME280;5043;41.766;26.204;2024-03-23T11:00:11;100952.53;;;21.02;25.41
10008;BME280;5043;41.766;26.204;2024-03-23T11:02:37;100954.47;;;21.33;25.09
10008;BME280;5043;41.766;26.204;2024-03-23T11:07:51;100943.50;;;22.12;22.90
10008;BME280;5043;41.766;26.204;2024-03-23T11:10:31;100945.56;;;22.47;22.01
10008;BME280;5043;41.766;26.204;2024-03-23T11:12:59;100926.81;;;22.62;21.60
10008;BME280;5043;41.766;26.204;2024-03-23T11:15:44;100936.41;;;22.93;21.88
10008;BME280;5043;41.766;26.204;2024-03-23T11:18:09;100924.03;;;22.70;22.04
10008;BME280;5043;41.766;26.204;2024-03-23T11:20:37;100936.22;;;23.09;21.81
10008;BME280;5043;41.766;26.204;2024-03-23T11:23:04;100925.28;;;23.25;21.82
10008;BME280;5043;41.766;26.204;2024-03-23T11:25:30;100923.41;;;23.70;21.44
10008;BME280;5043;41.766;26.204;2024-03-23T11:27:57;100910.44;;;24.01;20.70
10008;BME280;5043;41.766;26.204;2024-03-23T11:30:25;100919.16;;;24.03;20.75
10008;BME280;5043;41.766;26.204;2024-03-23T11:32:53;100915.81;;;24.16;20.80
10008;BME280;5043;41.766;26.204;2024-03-23T11:35:38;100915.16;;;24.35;20.58
10008;BME280;5043;41.766;26.204;2024-03-23T11:38:09;100908.66;;;24.50;20.44
10008;BME280;5043;41.766;26.204;2024-03-23T11:40:45;100899.63;;;24.92;20.08
10008;BME280;5043;41.766;26.204;2024-03-23T11:43:19;100898.34;;;24.60;20.25
10008;BME280;5043;41.766;26.204;2024-03-23T11:45:51;100891.81;;;24.21;20.70
10008;BME280;5043;41.766;26.204;2024-03-23T11:48:22;100892.34;;;24.37;20.54
10008;BME280;5043;41.766;26.204;2024-03-23T11:50:55;100888.47;;;24.74;20.40
10008;BME280;5043;41.766;26.204;2024-03-23T11:53:24;100893.78;;;24.61;19.84
10008;BME280;5043;41.766;26.204;2024-03-23T11:58:17;100876.38;;;24.91;20.65
10008;BME280;5043;41.766;26.204;2024-03-23T12:00:50;100876.22;;;24.44;21.00
10008;BME280;5043;41.766;26.204;2024-03-23T12:03:19;100842.47;;;24.54;20.58
10008;BME280;5043;41.766;26.204;2024-03-23T12:05:52;100865.63;;;25.04;19.93
10008;BME280;5043;41.766;26.204;2024-03-23T12:13:29;100844.25;;;27.07;18.58
10008;BME280;5043;41.766;26.204;2024-03-23T12:16:12;100846.31;;;27.12;19.72
10008;BME280;5043;41.766;26.204;2024-03-23T12:18:41;100856.28;;;27.62;19.38
10008;BME280;5043;41.766;26.204;2024-03-23T12:21:08;100852.84;;;28.11;18.67
10008;BME280;5043;41.766;26.204;2024-03-23T12:23:34;100842.78;;;29.04;18.21
10008;BME280;5043;41.766;26.204;2024-03-23T12:26:00;100840.59;;;30.54;16.99
10008;BME280;5043;41.766;26.204;2024-03-23T12:28:26;100839.06;;;32.23;15.38
10008;BME280;5043;41.766;26.204;2024-03-23T12:30:52;100825.91;;;32.53;15.55
10008;BME280;5043;41.766;26.204;2024-03-23T12:33:20;100831.25;;;33.24;14.39
10008;BME280;5043;41.766;26.204;2024-03-23T12:35:47;100815.88;;;33.72;14.18
10008;BME280;5043;41.766;26.204;2024-03-23T12:38:12;100822.16;;;34.73;13.53
10008;BME280;5043;41.766;26.204;2024-03-23T12:40:38;100814.22;;;35.38;12.83
10008;BME280;5043;41.766;26.204;2024-03-23T12:43:04;100807.69;;;35.59;12.44
10008;BME280;5043;41.766;26.204;2024-03-23T12:45:30;100824.19;;;36.60;12.08
10008;BME280;5043;41.766;26.204;2024-03-23T12:47:55;100810.81;;;38.00;10.89
10008;BME280;5043;41.766;26.204;2024-03-23T12:50:21;100806.72;;;39.02;10.57
10008;BME280;5043;41.766;26.204;2024-03-23T12:52:47;100805.88;;;39.63;9.94
10008;BME280;5043;41.766;26.204;2024-03-23T12:55:13;100801.56;;;40.67;9.40
10008;BME280;5043;41.766;26.204;2024-03-23T12:57:39;100808.47;;;41.46;9.03
10008;BME280;5043;41.766;26.204;2024-03-23T13:00:06;100801.88;;;41.06;9.10
10008;BME280;5043;41.766;26.204;2024-03-23T13:02:35;100802.59;;;41.12;9.10
10008;BME280;5043;41.766;26.204;2024-03-23T13:05:01;100775.88;;;41.30;8.56
10008;BME280;5043;41.766;26.204;2024-03-23T13:07:26;100774.72;;;41.66;8.76
10008;BME280;5043;41.766;26.204;2024-03-23T13:09:53;100769.88;;;41.94;8.68
10008;BME280;5043;41.766;26.204;2024-03-23T13:12:21;100778.38;;;42.51;8.67
10008;BME280;5043;41.766;26.204;2024-03-23T13:14:47;100769.59;;;41.38;9.13
10008;BME280;5043;41.766;26.204;2024-03-23T13:17:13;100769.53;;;41.15;9.19
10008;BME280;5043;41.766;26.204;2024-03-23T13:19:39;100769.16;;;40.81;9.59
10008;BME280;5043;41.766;26.204;2024-03-23T13:22:05;100766.03;;;40.15;9.55
10008;BME280;5043;41.766;26.204;2024-03-23T13:24:31;100761.66;;;40.68;9.77
10008;BME280;5043;41.766;26.204;2024-03-23T13:26:57;100756.91;;;39.82;9.93
10008;BME280;5043;41.766;26.204;2024-03-23T13:29:23;100755.84;;;39.64;9.91
10008;BME280;5043;41.766;26.204;2024-03-23T13:31:51;100763.09;;;38.81;10.49
10008;BME280;5043;41.766;26.204;2024-03-23T13:34:17;100741.47;;;37.49;10.96
10008;BME280;5043;41.766;26.204;2024-03-23T13:36:44;100742.25;;;38.17;10.68
10008;BME280;5043;41.766;26.204;2024-03-23T13:39:10;100731.31;;;38.36;10.63
10008;BME280;5043;41.766;26.204;2024-03-23T13:41:40;100744.03;;;39.40;9.98
10008;BME280;5043;41.766;26.204;2024-03-23T13:44:06;100735.06;;;38.21;10.83
10008;BME280;5043;41.766;26.204;2024-03-23T13:46:32;100723.09;;;36.91;11.55
10008;BME280;5043;41.766;26.204;2024-03-23T13:48:58;100732.16;;;36.22;12.07
10008;BME280;5043;41.766;26.204;2024-03-23T13:51:24;100714.81;;;33.65;13.46
10008;BME280;5043;41.766;26.204;2024-03-23T13:53:56;100731.75;;;30.99;15.30
10008;BME280;5043;41.766;26.204;2024-03-23T13:56:22;100725.81;;;30.16;16.06
10008;BME280;5043;41.766;26.204;2024-03-23T13:58:48;100722.72;;;27.98;17.91